Time;durP1;ratioP1;P1;durP2;ratioP2;P2;SDS_P1;SDS_P2;PMS_P1;PMS_P2;Temp;Humidity;BMP_temperature;BMP_pressure;BME280_temperature;BME280_humidity;BME280_pressure;Samples;Min_cycle;Max_cycle;Signal;HPM_P1;HPM_P2
2023/11/14 00:00:20;;;;;;;;;;;22.60;44.20;;;;;;5137645;27;20018;-60
2023/11/14 00:02:47;;;;;;;;;;;22.60;44.10;;;;;;5137225;27;19924;-61
2023/11/14 00:05:14;;;;;;;;;;;22.60;44.10;;;;;;5136601;27;20386;-60
2023/11/14 00:07:41;;;;;;;;;;;22.50;44.10;;;;;;5136159;27;20416;-61
2023/11/14 00:10:08;;;;;;;;;;;22.50;44.10;;;;;;5118894;27;19927;-60
2023/11/14 00:12:38;;;;;;;;;;;22.50;44.10;;;;;;5119491;27;19923;-60
2023/11/14 00:15:05;;;;;;;;;;;22.50;44.10;;;;;;5136920;27;19967;-60
2023/11/14 00:17:33;;;;;;;;;;;22.50;44.10;;;;;;5136376;27;19950;-60
2023/11/14 00:20:00;;;;;;;;;;;22.50;44.10;;;;;;5136867;27;19930;-60
2023/11/14 00:22:27;;;;;;;;;;;22.50;44.10;;;;;;5136798;27;19924;-60
2023/11/14 00:24:54;;;;;;;;;;;22.50;44.10;;;;;;5136976;27;20279;-60
2023/11/14 00:27:21;;;;;;;;;;;22.50;44.10;;;;;;5136804;27;19923;-60
2023/11/14 00:29:48;;;;;;;;;;;22.50;44.20;;;;;;5136729;27;19977;-60
2023/11/14 00:32:15;;;;;;;;;;;22.50;44.70;;;;;;5136951;27;19923;-60
2023/11/14 00:34:42;;;;;;;;;;;22.50;44.20;;;;;;5137000;27;19927;-61
2023/11/14 00:37:09;;;;;;;;;;;22.50;44.80;;;;;;5136744;27;19923;-59
2023/11/14 00:39:36;;;;;;;;;;;22.50;44.30;;;;;;5136933;27;19955;-59
2023/11/14 00:42:03;;;;;;;;;;;22.50;44.30;;;;;;5136390;27;19974;-59
2023/11/14 00:47:31;;;;;;;;;;;22.40;44.30;;;;;;5115636;28;19924;-59
2023/11/14 00:49:58;;;;;;;;;;;22.50;44.30;;;;;;5115580;28;19950;-60
2023/11/14 00:52:25;;;;;;;;;;;22.50;44.80;;;;;;5115873;28;19923;-59
2023/11/14 00:54:52;;;;;;;;;;;22.50;44.20;;;;;;5115259;28;19932;-60
2023/11/14 00:57:19;;;;;;;;;;;22.50;44.10;;;;;;5115227;28;19923;-60
2023/11/14 00:59:46;;;;;;;;;;;22.50;44.10;;;;;;5096354;28;20029;-60
2023/11/14 01:02:13;;;;;;;;;;;22.50;44.10;;;;;;5095180;28;19927;-60
2023/11/14 01:04:40;;;;;;;;;;;22.50;44.20;;;;;;5095092;28;20394;-60
2023/11/14 01:07:09;;;;;;;;;;;22.50;44.10;;;;;;5095209;28;19924;-60
2023/11/14 01:09:36;;;;;;;;;;;22.50;44.20;;;;;;5095293;28;19978;-60
2023/11/14 01:12:03;;;;;;;;;;;22.50;44.20;;;;;;5094803;28;19928;-60
2023/11/14 01:14:30;;;;;;;;;;;22.50;44.20;;;;;;5095059;28;19971;-60
2023/11/14 01:16:57;;;;;;;;;;;22.50;44.20;;;;;;5094411;28;19932;-60
2023/11/14 01:19:24;;;;;;;;;;;22.40;44.20;;;;;;5094894;28;19924;-60
2023/11/14 01:21:52;;;;;;;;;;;22.50;44.20;;;;;;5110773;28;19924;-59
2023/11/14 01:24:19;;;;;;;;;;;22.40;44.20;;;;;;5094865;28;19924;-59
2023/11/14 01:26:46;;;;;;;;;;;22.40;44.20;;;;;;5094824;28;19970;-59
2023/11/14 01:29:13;;;;;;;;;;;22.40;44.20;;;;;;5094561;28;20376;-59
2023/11/14 01:31:40;;;;;;;;;;;22.40;44.20;;;;;;5094379;28;20426;-59
2023/11/14 01:34:07;;;;;;;;;;;22.40;44.20;;;;;;5094643;28;20364;-60
2023/11/14 01:36:37;;;;;;;;;;;22.40;44.20;;;;;;5094152;28;20372;-60
2023/11/14 01:39:05;;;;;;;;;;;22.40;44.20;;;;;;5094518;28;19967;-60
2023/11/14 01:41:33;;;;;;;;;;;22.40;44.20;;;;;;5107083;28;20049;-60
2023/11/14 01:44:00;;;;;;;;;;;22.40;44.20;;;;;;5115057;28;20036;-60
2023/11/14 01:46:27;;;;;;;;;;;22.40;44.30;;;;;;5114998;28;20383;-60
2023/11/14 01:48:54;;;;;;;;;;;22.40;44.20;;;;;;5114894;28;19969;-60
2023/11/14 01:51:23;;;;;;;;;;;22.40;44.20;;;;;;5114468;28;19924;-59
2023/11/14 01:53:51;;;;;;;;;;;22.40;44.20;;;;;;5114786;28;19967;-59
2023/11/14 01:56:19;;;;;;;;;;;22.40;44.20;;;;;;5114733;28;19923;-59
2023/11/14 01:58:46;;;;;;;;;;;22.40;44.20;;;;;;5125587;27;19930;-59
2023/11/14 02:01:13;;;;;;;;;;;22.40;44.20;;;;;;5134907;27;19980;-59
2023/11/14 02:03:40;;;;;;;;;;;22.40;44.20;;;;;;5134882;27;20368;-59
2023/11/14 02:06:08;;;;;;;;;;;22.40;44.30;;;;;;5134681;27;19923;-59
2023/11/14 02:08:35;;;;;;;;;;;22.40;44.30;;;;;;5135212;27;19994;-59
2023/11/14 02:11:02;;;;;;;;;;;22.40;44.30;;;;;;5134704;27;20021;-60
2023/11/14 02:13:29;;;;;;;;;;;22.40;44.30;;;;;;5134866;27;20392;-59
2023/11/14 02:15:57;;;;;;;;;;;22.40;44.30;;;;;;5134532;27;19949;-59
2023/11/14 02:18:25;;;;;;;;;;;22.40;44.30;;;;;;5134914;27;19930;-59
2023/11/14 02:20:52;;;;;;;;;;;22.40;44.80;;;;;;5134817;27;19946;-59
2023/11/14 02:23:19;;;;;;;;;;;22.40;44.30;;;;;;5134477;27;19967;-59
2023/11/14 02:25:46;;;;;;;;;;;22.40;44.20;;;;;;5134374;27;20295;-59
2023/11/14 02:28:16;;;;;;;;;;;22.40;44.20;;;;;;5134779;27;19950;-60
2023/11/14 02:30:43;;;;;;;;;;;22.40;44.20;;;;;;5115947;27;20359;-59
2023/11/14 02:33:10;;;;;;;;;;;22.40;44.20;;;;;;5116421;27;20053;-59
2023/11/14 02:35:37;;;;;;;;;;;22.40;44.20;;;;;;5134918;27;20283;-59
2023/11/14 02:38:04;;;;;;;;;;;22.40;44.20;;;;;;5134428;27;20355;-59
2023/11/14 02:40:31;;;;;;;;;;;22.40;44.20;;;;;;5134471;27;19923;-59
2023/11/14 02:42:58;;;;;;;;;;;22.40;44.20;;;;;;5134295;27;19927;-59
2023/11/14 02:45:26;;;;;;;;;;;22.40;44.20;;;;;;5134347;28;19929;-59
2023/11/14 02:47:54;;;;;;;;;;;22.40;44.30;;;;;;5134291;27;19930;-60
2023/11/14 02:50:41;;;;;;;;;;;22.40;44.30;;;;;;5134710;28;19924;-59
2023/11/14 02:53:09;;;;;;;;;;;22.40;44.30;;;;;;5134302;28;20406;-60
2023/11/14 02:55:36;;;;;;;;;;;22.40;44.30;;;;;;5134560;28;19924;-59
2023/11/14 02:58:03;;;;;;;;;;;22.40;44.30;;;;;;5134251;27;19932;-59
2023/11/14 03:00:30;;;;;;;;;;;22.40;44.30;;;;;;5134585;28;19924;-59
2023/11/14 03:02:57;;;;;;;;;;;22.40;44.30;;;;;;5115906;28;19984;-59
2023/11/14 03:05:24;;;;;;;;;;;22.30;44.30;;;;;;5134429;28;19923;-59
2023/11/14 03:07:51;;;;;;;;;;;22.40;44.30;;;;;;5134450;27;19967;-59
2023/11/14 03:10:18;;;;;;;;;;;22.30;44.30;;;;;;5134428;28;19923;-59
2023/11/14 03:12:45;;;;;;;;;;;22.30;44.90;;;;;;5133958;27;19974;-59
2023/11/14 03:15:12;;;;;;;;;;;22.30;44.30;;;;;;5134240;28;19992;-60
2023/11/14 03:17:39;;;;;;;;;;;22.30;44.30;;;;;;5133893;27;19923;-59
2023/11/14 03:20:06;;;;;;;;;;;22.30;44.30;;;;;;5133982;28;20379;-59
2023/11/14 03:22:44;;;;;;;;;;;22.30;44.30;;;;;;5133852;27;19923;-59
2023/11/14 03:25:12;;;;;;;;;;;22.40;44.30;;;;;;5134404;28;19969;-59
2023/11/14 03:27:41;;;;;;;;;;;22.30;44.30;;;;;;5133216;27;21309;-59
2023/11/14 03:30:09;;;;;;;;;;;22.40;44.30;;;;;;5133781;28;19923;-60
2023/11/14 03:32:36;;;;;;;;;;;22.30;44.30;;;;;;5133783;27;20026;-60
2023/11/14 03:35:04;;;;;;;;;;;22.30;44.30;;;;;;5133801;28;19932;-60
2023/11/14 03:37:31;;;;;;;;;;;22.30;44.40;;;;;;5102148;28;19924;-60
2023/11/14 03:39:58;;;;;;;;;;;22.30;44.40;;;;;;5095335;28;19924;-60
2023/11/14 03:42:25;;;;;;;;;;;22.30;44.40;;;;;;5116963;28;20376;-60
2023/11/14 03:44:52;;;;;;;;;;;22.30;44.40;;;;;;5117015;28;19973;-60
2023/11/14 03:47:20;;;;;;;;;;;22.30;44.40;;;;;;5098970;28;20322;-60
2023/11/14 03:49:47;;;;;;;;;;;22.30;44.30;;;;;;5117100;28;19924;-60
2023/11/14 03:52:14;;;;;;;;;;;22.30;44.30;;;;;;5116770;28;19928;-60
2023/11/14 03:54:41;;;;;;;;;;;22.30;44.20;;;;;;5117192;28;20291;-60
2023/11/14 03:57:08;;;;;;;;;;;22.30;44.30;;;;;;5116705;28;19924;-59
2023/11/14 03:59:36;;;;;;;;;;;22.30;44.30;;;;;;5134781;27;20010;-59
2023/11/14 04:02:03;;;;;;;;;;;22.30;44.30;;;;;;5137149;27;19976;-59
2023/11/14 04:04:30;;;;;;;;;;;22.30;44.30;;;;;;5137214;27;19946;-59
2023/11/14 04:06:57;;;;;;;;;;;22.30;44.50;;;;;;5136994;27;20019;-60
2023/11/14 04:09:24;;;;;;;;;;;22.30;44.30;;;;;;5137152;27;20015;-60
2023/11/14 04:11:51;;;;;;;;;;;22.30;44.40;;;;;;5137107;27;19945;-59
2023/11/14 04:14:18;;;;;;;;;;;22.30;44.30;;;;;;5137093;27;20014;-60
2023/11/14 04:16:45;;;;;;;;;;;22.30;44.40;;;;;;5136657;27;19924;-60
2023/11/14 04:19:12;;;;;;;;;;;22.30;44.40;;;;;;5136821;27;20390;-60
2023/11/14 04:21:39;;;;;;;;;;;22.30;44.40;;;;;;5137342;27;19973;-60
2023/11/14 04:24:06;;;;;;;;;;;22.30;44.40;;;;;;5136698;27;19970;-60
2023/11/14 04:26:34;;;;;;;;;;;22.20;44.40;;;;;;5125126;27;20010;-60
2023/11/14 04:29:01;;;;;;;;;;;22.30;44.40;;;;;;5116386;28;19932;-60
2023/11/14 04:31:28;;;;;;;;;;;22.20;44.40;;;;;;5115153;28;20360;-60
2023/11/14 04:33:55;;;;;;;;;;;22.20;44.40;;;;;;5115789;28;20395;-60
2023/11/14 04:36:21;;;;;;;;;;;22.20;44.40;;;;;;5116011;28;20010;-60
2023/11/14 04:38:48;;;;;;;;;;;22.30;44.50;;;;;;5115763;28;20325;-60
2023/11/14 04:41:16;;;;;;;;;;;22.20;44.40;;;;;;5115492;28;20027;-60
2023/11/14 04:43:43;;;;;;;;;;;22.20;44.40;;;;;;5115297;27;20030;-60
2023/11/14 04:46:10;;;;;;;;;;;22.30;44.40;;;;;;5113862;28;20376;-60
2023/11/14 04:48:37;;;;;;;;;;;22.30;44.30;;;;;;5098388;27;19931;-60
2023/11/14 04:51:04;;;;;;;;;;;22.30;44.30;;;;;;5126586;27;20340;-60
2023/11/14 04:53:31;;;;;;;;;;;22.30;44.20;;;;;;5110250;27;19924;-60
2023/11/14 04:55:58;;;;;;;;;;;22.30;44.20;;;;;;5104082;28;19924;-60
2023/11/14 04:58:25;;;;;;;;;;;22.40;44.30;;;;;;5109704;27;20438;-60
2023/11/14 05:00:52;;;;;;;;;;;22.40;44.30;;;;;;5133435;27;20375;-60
2023/11/14 05:03:19;;;;;;;;;;;22.30;44.30;;;;;;5115330;28;20359;-59
2023/11/14 05:05:46;;;;;;;;;;;22.30;44.30;;;;;;5115583;28;19927;-60
2023/11/14 05:08:13;;;;;;;;;;;22.30;44.30;;;;;;5115201;28;19927;-60
2023/11/14 05:10:41;;;;;;;;;;;22.30;44.40;;;;;;5114683;28;19934;-60
2023/11/14 05:13:08;;;;;;;;;;;22.30;44.40;;;;;;5114894;28;19924;-60
2023/11/14 05:15:34;;;;;;;;;;;22.30;44.50;;;;;;5114569;28;20015;-60
2023/11/14 05:18:02;;;;;;;;;;;22.30;44.40;;;;;;5115169;28;19930;-59
2023/11/14 05:20:29;;;;;;;;;;;22.30;45.00;;;;;;5115128;28;19923;-59
2023/11/14 05:22:56;;;;;;;;;;;22.20;44.50;;;;;;5116179;27;20275;-59
2023/11/14 05:25:23;;;;;;;;;;;22.30;44.50;;;;;;5135475;27;20394;-59
2023/11/14 05:27:50;;;;;;;;;;;22.30;44.60;;;;;;5134866;27;20375;-60
2023/11/14 05:30:17;;;;;;;;;;;22.30;44.60;;;;;;5118152;27;20388;-60
2023/11/14 05:32:44;;;;;;;;;;;22.20;44.50;;;;;;5101267;28;20352;-59
2023/11/14 05:35:12;;;;;;;;;;;22.30;44.60;;;;;;5094917;28;19924;-59
2023/11/14 05:37:39;;;;;;;;;;;22.20;44.60;;;;;;5094572;28;19924;-60
2023/11/14 05:40:08;;;;;;;;;;;22.30;44.70;;;;;;5094796;28;20284;-59
2023/11/14 05:42:37;;;;;;;;;;;22.20;44.60;;;;;;5094105;28;20008;-60
2023/11/14 05:45:04;;;;;;;;;;;22.20;44.60;;;;;;5100137;27;20387;-59
2023/11/14 05:47:32;;;;;;;;;;;22.30;44.70;;;;;;5135334;27;19992;-59
2023/11/14 05:49:59;;;;;;;;;;;22.20;44.70;;;;;;5135277;27;20276;-60
2023/11/14 05:52:26;;;;;;;;;;;22.20;44.70;;;;;;5122406;27;20333;-59
2023/11/14 05:54:53;;;;;;;;;;;22.20;44.70;;;;;;5113625;28;20014;-59
2023/11/14 05:57:20;;;;;;;;;;;22.30;44.70;;;;;;5088888;28;20003;-60
2023/11/14 05:59:50;;;;;;;;;;;22.20;44.70;;;;;;5113233;28;20317;-60
2023/11/14 06:02:17;;;;;;;;;;;22.20;44.70;;;;;;5114133;28;19923;-59
2023/11/14 06:04:45;;;;;;;;;;;22.30;44.80;;;;;;5107672;28;20014;-60
2023/11/14 06:07:12;;;;;;;;;;;22.20;44.70;;;;;;5111476;28;19938;-59
2023/11/14 06:09:39;;;;;;;;;;;22.30;44.80;;;;;;5129017;27;19968;-60
2023/11/14 06:12:07;;;;;;;;;;;22.20;44.70;;;;;;5134642;27;19928;-59
2023/11/14 06:14:33;;;;;;;;;;;22.20;44.80;;;;;;5129982;27;20020;-59
2023/11/14 06:17:01;;;;;;;;;;;22.20;44.80;;;;;;5112875;28;20379;-63
2023/11/14 06:19:28;;;;;;;;;;;22.20;44.80;;;;;;5113696;28;20395;-60
2023/11/14 06:21:55;;;;;;;;;;;22.30;44.90;;;;;;5113325;28;20440;-60
2023/11/14 06:24:22;;;;;;;;;;;22.30;45.10;;;;;;5099577;27;20010;-60
2023/11/14 06:26:49;;;;;;;;;;;22.30;45.30;;;;;;5104307;28;20023;-60
2023/11/14 06:29:17;;;;;;;;;;;22.40;45.40;;;;;;5099153;27;20386;-59
2023/11/14 06:31:44;;;;;;;;;;;22.40;45.40;;;;;;5100165;28;19931;-60
2023/11/14 06:34:13;;;;;;;;;;;22.40;45.50;;;;;;5092861;28;20003;-60
2023/11/14 06:36:41;;;;;;;;;;;22.40;45.50;;;;;;5095767;28;19939;-59
2023/11/14 06:39:08;;;;;;;;;;;22.40;46.10;;;;;;5094033;28;19923;-59
2023/11/14 06:41:35;;;;;;;;;;;22.50;45.60;;;;;;5097209;28;20350;-59
2023/11/14 06:44:02;;;;;;;;;;;22.50;45.70;;;;;;5093401;27;19946;-58
2023/11/14 06:46:29;;;;;;;;;;;22.50;45.70;;;;;;5099430;28;19928;-59
2023/11/14 06:48:57;;;;;;;;;;;22.60;45.60;;;;;;5080367;28;20026;-61
2023/11/14 06:51:24;;;;;;;;;;;22.60;45.50;;;;;;5099774;28;20346;-60
2023/11/14 06:53:50;;;;;;;;;;;22.60;45.70;;;;;;5106565;28;19928;-60
2023/11/14 06:56:19;;;;;;;;;;;22.70;46.00;;;;;;5096773;28;20022;-60
2023/11/14 06:58:47;;;;;;;;;;;22.70;46.20;;;;;;5099073;28;20010;-62
2023/11/14 07:01:14;;;;;;;;;;;22.70;46.10;;;;;;5084733;28;20352;-61
2023/11/14 07:03:41;;;;;;;;;;;22.80;46.10;;;;;;5104728;28;20388;-61
2023/11/14 07:06:08;;;;;;;;;;;22.80;46.00;;;;;;5101130;28;19957;-61
2023/11/14 07:08:35;;;;;;;;;;;22.80;45.80;;;;;;5100539;28;19932;-59
2023/11/14 07:11:04;;;;;;;;;;;22.90;45.70;;;;;;5103648;28;20002;-60
2023/11/14 07:13:32;;;;;;;;;;;22.90;45.40;;;;;;5103478;28;19946;-60
2023/11/14 07:15:59;;;;;;;;;;;23.00;45.40;;;;;;5104393;27;19931;-59
2023/11/14 07:18:26;;;;;;;;;;;23.00;45.20;;;;;;5083417;28;19935;-60
2023/11/14 07:20:54;;;;;;;;;;;23.00;45.40;;;;;;5105585;27;19930;-58
2023/11/14 07:23:22;;;;;;;;;;;23.00;45.60;;;;;;5089937;28;20410;-58
2023/11/14 07:25:49;;;;;;;;;;;23.00;45.70;;;;;;5100449;27;20032;-63
2023/11/14 07:28:16;;;;;;;;;;;23.10;45.80;;;;;;5093929;28;19970;-58
2023/11/14 07:30:44;;;;;;;;;;;23.10;45.90;;;;;;5110502;27;19924;-62
2023/11/14 07:33:11;;;;;;;;;;;23.10;45.90;;;;;;5107044;27;19938;-62
2023/11/14 07:35:38;;;;;;;;;;;23.10;45.90;;;;;;5105353;27;20348;-63
2023/11/14 07:38:06;;;;;;;;;;;23.10;45.80;;;;;;5100127;27;19942;-62
2023/11/14 07:40:33;;;;;;;;;;;23.20;45.80;;;;;;5105339;27;19935;-63
2023/11/14 07:43:02;;;;;;;;;;;23.20;45.70;;;;;;5100211;27;19934;-66
2023/11/14 07:45:29;;;;;;;;;;;23.30;45.70;;;;;;5104597;27;20399;-62
2023/11/14 07:47:57;;;;;;;;;;;23.30;45.80;;;;;;5086358;28;19930;-63
2023/11/14 07:50:26;;;;;;;;;;;23.30;45.90;;;;;;5104146;27;19985;-63
2023/11/14 07:52:53;;;;;;;;;;;23.30;45.90;;;;;;5087525;28;20014;-62
2023/11/14 07:55:20;;;;;;;;;;;23.30;46.00;;;;;;5083187;28;19978;-62
2023/11/14 07:57:47;;;;;;;;;;;23.40;46.00;;;;;;5104103;27;20559;-61
2023/11/14 08:00:15;;;;;;;;;;;23.40;46.00;;;;;;5098410;27;19931;-65
2023/11/14 08:02:42;;;;;;;;;;;23.40;46.00;;;;;;5072200;28;19935;-62
2023/11/14 08:05:10;;;;;;;;;;;23.40;46.00;;;;;;5103485;27;20291;-62
2023/11/14 08:07:37;;;;;;;;;;;23.50;46.00;;;;;;5101500;27;20417;-62
2023/11/14 08:10:05;;;;;;;;;;;23.50;45.90;;;;;;5084352;28;19924;-58
2023/11/14 08:12:32;;;;;;;;;;;23.60;46.00;;;;;;5103939;27;20014;-64
2023/11/14 08:15:00;;;;;;;;;;;23.60;46.20;;;;;;5107728;27;20055;-61
2023/11/14 08:17:27;;;;;;;;;;;23.60;46.40;;;;;;5109066;27;19924;-61
2023/11/14 08:19:55;;;;;;;;;;;23.70;46.70;;;;;;5086387;27;19939;-61
2023/11/14 08:22:23;;;;;;;;;;;23.70;46.80;;;;;;5098625;28;19954;-61
2023/11/14 08:24:51;;;;;;;;;;;23.70;46.80;;;;;;5102131;27;19981;-62
2023/11/14 08:27:18;;;;;;;;;;;23.80;46.80;;;;;;5085886;27;19943;-60
2023/11/14 08:29:48;;;;;;;;;;;23.80;46.80;;;;;;5107837;27;20017;-60
2023/11/14 08:32:16;;;;;;;;;;;23.90;46.70;;;;;;5105572;27;19931;-62
2023/11/14 08:34:43;;;;;;;;;;;23.90;46.50;;;;;;5103394;27;20023;-62
2023/11/14 08:37:11;;;;;;;;;;;23.90;46.20;;;;;;5102702;28;19924;-60
2023/11/14 08:39:43;;;;;;;;;;;23.90;46.00;;;;;;5105238;27;20011;-60
2023/11/14 08:42:11;;;;;;;;;;;23.90;45.80;;;;;;5090666;27;19932;-59
2023/11/14 08:44:40;;;;;;;;;;;24.00;45.80;;;;;;5078485;28;19938;-60
2023/11/14 08:47:07;;;;;;;;;;;24.00;45.60;;;;;;5080794;27;19977;-60
2023/11/14 08:49:34;;;;;;;;;;;24.10;45.60;;;;;;5090711;27;20010;-61
2023/11/14 08:52:02;;;;;;;;;;;24.10;45.70;;;;;;5107102;28;20382;-61
2023/11/14 08:54:29;;;;;;;;;;;24.10;45.60;;;;;;5108609;27;19966;-61
2023/11/14 08:56:57;;;;;;;;;;;24.10;45.40;;;;;;5105984;27;20012;-60
2023/11/14 08:59:24;;;;;;;;;;;24.20;45.40;;;;;;5107577;27;19928;-59
2023/11/14 09:01:51;;;;;;;;;;;24.20;45.40;;;;;;5104738;27;20421;-61
2023/11/14 09:04:19;;;;;;;;;;;24.30;45.30;;;;;;5101197;27;19928;-62
2023/11/14 09:06:46;;;;;;;;;;;24.30;45.20;;;;;;5105609;27;20432;-61
2023/11/14 09:09:20;;;;;;;;;;;24.30;45.20;;;;;;5103936;27;19971;-61
2023/11/14 09:11:48;;;;;;;;;;;24.30;45.10;;;;;;5103522;28;20058;-63
2023/11/14 09:14:16;;;;;;;;;;;24.30;45.00;;;;;;5092772;27;19979;-63
2023/11/14 09:16:43;;;;;;;;;;;24.30;45.00;;;;;;5081732;27;20403;-60
2023/11/14 09:19:10;;;;;;;;;;;24.40;45.10;;;;;;5079411;28;19939;-63
2023/11/14 09:21:37;;;;;;;;;;;24.40;45.10;;;;;;5082332;27;19955;-62
2023/11/14 09:24:08;;;;;;;;;;;24.50;45.10;;;;;;5068492;28;19994;-61
2023/11/14 09:26:37;;;;;;;;;;;24.50;44.90;;;;;;5065248;28;19938;-63
2023/11/14 09:29:05;;;;;;;;;;;24.50;44.90;;;;;;5083986;28;19939;-59
2023/11/14 09:31:32;;;;;;;;;;;24.50;44.90;;;;;;5084280;27;20704;-62
2023/11/14 09:34:00;;;;;;;;;;;24.50;44.90;;;;;;5083803;28;20003;-62
2023/11/14 09:36:27;;;;;;;;;;;24.50;44.90;;;;;;5079447;27;19942;-60
2023/11/14 09:38:54;;;;;;;;;;;24.50;44.90;;;;;;5084829;28;20039;-62
2023/11/14 09:41:21;;;;;;;;;;;24.50;44.90;;;;;;5083979;28;19939;-60
2023/11/14 09:43:52;;;;;;;;;;;24.60;45.00;;;;;;5061123;28;19932;-59
2023/11/14 09:46:20;;;;;;;;;;;24.60;44.90;;;;;;5098316;27;20391;-59
2023/11/14 09:48:47;;;;;;;;;;;24.60;44.90;;;;;;5063671;28;20525;-59
2023/11/14 09:51:14;;;;;;;;;;;24.70;44.80;;;;;;5083092;27;19990;-61
2023/11/14 09:53:44;;;;;;;;;;;24.70;44.80;;;;;;5083317;28;20040;-56
2023/11/14 09:56:12;;;;;;;;;;;24.70;44.70;;;;;;5059324;28;21247;-58
2023/11/14 09:58:39;;;;;;;;;;;24.70;44.60;;;;;;5078863;28;19924;-62
2023/11/14 10:01:06;;;;;;;;;;;24.80;44.60;;;;;;5105498;27;19951;-60
2023/11/14 10:03:33;;;;;;;;;;;24.80;44.70;;;;;;5098151;28;20391;-60
2023/11/14 10:06:02;;;;;;;;;;;24.80;44.70;;;;;;5087079;28;19939;-60
2023/11/14 10:08:30;;;;;;;;;;;24.80;44.70;;;;;;5122906;27;19955;-61
2023/11/14 10:11:11;;;;;;;;;;;24.80;44.70;;;;;;5105137;27;19970;-61
2023/11/14 10:13:39;;;;;;;;;;;24.80;44.80;;;;;;5111001;27;19928;-60
2023/11/14 10:16:18;;;;;;;;;;;24.90;44.80;;;;;;5110419;28;19934;-63
2023/11/14 10:18:48;;;;;;;;;;;24.90;44.70;;;;;;5103881;27;20189;-61
2023/11/14 10:21:22;;;;;;;;;;;24.90;44.70;;;;;;5102700;28;19923;-57
2023/11/14 10:23:49;;;;;;;;;;;24.90;44.70;;;;;;5102131;27;20010;-61
2023/11/14 10:26:16;;;;;;;;;;;24.90;44.60;;;;;;5108335;27;19928;-60
2023/11/14 10:28:51;;;;;;;;;;;24.90;44.60;;;;;;5105707;27;20423;-61
2023/11/14 10:31:39;;;;;;;;;;;25.00;44.80;;;;;;5084441;28;19928;-61
2023/11/14 10:34:07;;;;;;;;;;;25.00;44.80;;;;;;5090247;27;19940;-61
2023/11/14 10:36:48;;;;;;;;;;;25.00;44.70;;;;;;5104664;28;19931;-60
2023/11/14 10:39:15;;;;;;;;;;;25.00;44.70;;;;;;5097137;28;20035;-61
2023/11/14 10:41:42;;;;;;;;;;;25.10;44.80;;;;;;5109231;27;19993;-61
2023/11/14 10:44:10;;;;;;;;;;;25.10;44.90;;;;;;5103677;28;19928;-60
2023/11/14 10:46:37;;;;;;;;;;;25.10;44.80;;;;;;5102893;28;19924;-61
2023/11/14 10:49:09;;;;;;;;;;;25.10;44.70;;;;;;5097444;28;19934;-60
2023/11/14 10:51:36;;;;;;;;;;;25.20;44.60;;;;;;5119682;28;19939;-59
2023/11/14 10:54:06;;;;;;;;;;;25.20;45.00;;;;;;5119624;27;20336;-64
2023/11/14 10:56:35;;;;;;;;;;;25.20;44.30;;;;;;5107049;28;19931;-62
2023/11/14 10:59:15;;;;;;;;;;;25.20;44.30;;;;;;5106132;28;20015;-62
2023/11/14 11:01:47;;;;;;;;;;;25.20;44.00;;;;;;5107661;28;19932;-64
2023/11/14 11:04:15;;;;;;;;;;;25.20;44.00;;;;;;5091680;28;20010;-61
2023/11/14 11:06:46;;;;;;;;;;;25.30;44.20;;;;;;5102850;28;19928;-62
2023/11/14 11:09:18;;;;;;;;;;;25.20;44.00;;;;;;5100890;28;19938;-64
2023/11/14 11:11:50;;;;;;;;;;;25.30;44.00;;;;;;5102475;28;20326;-67
2023/11/14 11:14:18;;;;;;;;;;;25.30;44.00;;;;;;5105445;28;20002;-63
2023/11/14 11:16:46;;;;;;;;;;;25.30;43.90;;;;;;5113590;28;19923;-65
2023/11/14 11:19:28;;;;;;;;;;;25.30;44.00;;;;;;5115787;28;19933;-65
2023/11/14 11:22:00;;;;;;;;;;;25.30;44.00;;;;;;5118359;28;19931;-65
2023/11/14 11:24:28;;;;;;;;;;;25.30;43.80;;;;;;5105658;28;20392;-65
2023/11/14 11:27:17;;;;;;;;;;;25.30;43.70;;;;;;5101742;28;19924;-66
2023/11/14 11:30:04;;;;;;;;;;;25.30;43.60;;;;;;5104568;28;20018;-66
2023/11/14 11:32:37;;;;;;;;;;;25.20;43.50;;;;;;5087171;28;19931;-65
2023/11/14 11:35:24;;;;;;;;;;;25.30;43.70;;;;;;5117937;27;19978;-63
2023/11/14 11:37:55;;;;;;;;;;;25.30;43.70;;;;;;5097525;28;19931;-62
2023/11/14 11:40:25;;;;;;;;;;;25.30;43.90;;;;;;5103901;28;19934;-60
2023/11/14 11:42:56;;;;;;;;;;;25.30;44.10;;;;;;5100218;28;19981;-63
2023/11/14 11:45:30;;;;;;;;;;;25.30;44.00;;;;;;5091506;28;19932;-61
2023/11/14 11:47:58;;;;;;;;;;;25.30;44.00;;;;;;5107138;28;19931;-61
2023/11/14 11:50:31;;;;;;;;;;;25.30;44.10;;;;;;5104393;28;19931;-62
2023/11/14 11:52:59;;;;;;;;;;;25.30;44.00;;;;;;5093498;28;19935;-63
2023/11/14 11:55:27;;;;;;;;;;;25.30;43.90;;;;;;5084175;28;19939;-64
2023/11/14 11:58:05;;;;;;;;;;;25.30;44.00;;;;;;5102252;28;20282;-62
2023/11/14 12:00:33;;;;;;;;;;;25.30;44.00;;;;;;5100957;28;20028;-61
2023/11/14 12:03:01;;;;;;;;;;;25.30;43.90;;;;;;5103961;27;20342;-61
2023/11/14 12:05:29;;;;;;;;;;;25.30;43.90;;;;;;5102580;27;20384;-63
2023/11/14 12:07:59;;;;;;;;;;;25.30;43.90;;;;;;5109235;27;20431;-61
2023/11/14 12:10:26;;;;;;;;;;;25.30;43.80;;;;;;5110044;27;19932;-64
2023/11/14 12:12:54;;;;;;;;;;;25.30;43.80;;;;;;5106848;27;19938;-65
2023/11/14 12:15:23;;;;;;;;;;;25.40;43.90;;;;;;5097854;28;19938;-64
2023/11/14 12:17:57;;;;;;;;;;;25.30;43.70;;;;;;5086103;28;19932;-67
2023/11/14 12:20:24;;;;;;;;;;;25.30;43.80;;;;;;5099855;27;19924;-64
2023/11/14 12:22:52;;;;;;;;;;;25.20;43.80;;;;;;5086938;28;19932;-67
2023/11/14 12:25:20;;;;;;;;;;;25.20;43.90;;;;;;5080614;28;19928;-65
2023/11/14 12:27:58;;;;;;;;;;;25.20;44.10;;;;;;5093110;28;20376;-64
2023/11/14 12:30:27;;;;;;;;;;;25.20;44.20;;;;;;5105561;27;19928;-61
2023/11/14 12:33:07;;;;;;;;;;;25.10;44.50;;;;;;5102953;27;19931;-63
2023/11/14 12:35:43;;;;;;;;;;;25.10;44.50;;;;;;5107369;27;20345;-63
2023/11/14 12:38:10;;;;;;;;;;;25.10;44.50;;;;;;5107196;27;19932;-61
2023/11/14 12:40:38;;;;;;;;;;;25.20;44.50;;;;;;5095317;27;19931;-62
2023/11/14 12:43:06;;;;;;;;;;;25.20;44.40;;;;;;5086486;28;19931;-60
2023/11/14 12:45:47;;;;;;;;;;;25.20;44.40;;;;;;5084458;28;19932;-61
2023/11/14 12:48:14;;;;;;;;;;;25.20;44.30;;;;;;5102678;27;19949;-60
2023/11/14 12:50:42;;;;;;;;;;;25.20;44.30;;;;;;5099601;27;19924;-63
2023/11/14 12:53:11;;;;;;;;;;;25.20;44.30;;;;;;5114990;27;19950;-55
2023/11/14 12:55:40;;;;;;;;;;;25.20;44.30;;;;;;5107587;27;20288;-62
2023/11/14 12:58:08;;;;;;;;;;;25.20;44.30;;;;;;5100641;27;19931;-64
2023/11/14 13:00:35;;;;;;;;;;;25.20;44.30;;;;;;5087533;28;19924;-67
2023/11/14 13:03:03;;;;;;;;;;;25.10;44.30;;;;;;5106819;27;19923;-62
2023/11/14 13:05:30;;;;;;;;;;;25.10;44.50;;;;;;5082400;27;19928;-61
2023/11/14 13:08:00;;;;;;;;;;;25.10;44.50;;;;;;5119077;27;19938;-61
2023/11/14 13:10:28;;;;;;;;;;;25.10;44.50;;;;;;5101550;27;19928;-59
2023/11/14 13:12:55;;;;;;;;;;;25.10;44.40;;;;;;5100912;27;19932;-62
2023/11/14 13:15:22;;;;;;;;;;;25.10;44.60;;;;;;5098276;27;19931;-61
2023/11/14 13:17:49;;;;;;;;;;;25.10;44.50;;;;;;5100512;27;19928;-61
2023/11/14 13:20:17;;;;;;;;;;;25.10;44.60;;;;;;5101525;27;19930;-62
2023/11/14 13:22:44;;;;;;;;;;;25.10;44.80;;;;;;5080769;27;20273;-62
2023/11/14 13:25:13;;;;;;;;;;;25.10;44.60;;;;;;5101060;27;19977;-61
2023/11/14 13:27:40;;;;;;;;;;;25.10;44.60;;;;;;5098080;27;19959;-61
2023/11/14 13:30:08;;;;;;;;;;;25.10;44.60;;;;;;5091670;28;20022;-62
2023/11/14 13:32:35;;;;;;;;;;;25.10;44.60;;;;;;5084814;28;19927;-62
2023/11/14 13:35:04;;;;;;;;;;;25.10;44.60;;;;;;5102451;27;20016;-63
2023/11/14 13:37:34;;;;;;;;;;;25.10;44.60;;;;;;5107403;27;19935;-64
2023/11/14 13:40:02;;;;;;;;;;;25.10;44.70;;;;;;5100038;27;19990;-62
2023/11/14 13:42:34;;;;;;;;;;;25.10;44.70;;;;;;5101484;27;19993;-64
2023/11/14 13:45:04;;;;;;;;;;;25.10;44.90;;;;;;5103493;27;20387;-64
2023/11/14 13:47:31;;;;;;;;;;;25.10;45.10;;;;;;5103715;27;19981;-62
2023/11/14 13:50:00;;;;;;;;;;;25.10;45.60;;;;;;5103038;27;19935;-62
2023/11/14 13:52:27;;;;;;;;;;;25.10;45.20;;;;;;5096876;27;19931;-63
2023/11/14 13:54:55;;;;;;;;;;;25.10;45.00;;;;;;5100014;27;20044;-63
2023/11/14 13:57:23;;;;;;;;;;;25.10;45.00;;;;;;5095649;27;19936;-60
2023/11/14 13:59:53;;;;;;;;;;;25.00;45.10;;;;;;5101637;27;19942;-60
2023/11/14 14:02:22;;;;;;;;;;;25.00;45.20;;;;;;5095051;27;20136;-60
2023/11/14 14:04:49;;;;;;;;;;;25.00;45.20;;;;;;5098517;27;20031;-61
2023/11/14 14:07:16;;;;;;;;;;;25.00;45.10;;;;;;5099415;27;19928;-60
2023/11/14 14:09:46;;;;;;;;;;;25.00;45.00;;;;;;5094491;28;20303;-60
2023/11/14 14:12:14;;;;;;;;;;;24.90;45.10;;;;;;5103235;27;20483;-59
2023/11/14 14:14:41;;;;;;;;;;;24.90;45.20;;;;;;5102235;27;19924;-60
2023/11/14 14:17:09;;;;;;;;;;;24.90;45.00;;;;;;5106008;27;20384;-59
2023/11/14 14:19:36;;;;;;;;;;;24.90;45.20;;;;;;5101189;27;20599;-62
2023/11/14 14:22:03;;;;;;;;;;;24.90;45.20;;;;;;5096575;27;19931;-65
2023/11/14 14:24:30;;;;;;;;;;;24.90;45.20;;;;;;5096646;27;20042;-65